Metlakatla, Alaska
Current Conditions -  °F | °C
As of 5:36 AM on Thursday 30 Oct 2014 (Local Time) from PAMM Reporting Station
Overcast Overcast  
Wind Chill: 50°   Ceiling: 4700
Heat Index: 50°   Visibility: 10mi
Dew Point: 41°   Wind: 20mph
Humidity: 71%   Direction: 120°ESE
Pressure: 29.48"   Gusts: 37mph
Location:  55.11°N, 131.58°W
Report Text: PAMM 301436Z AUTO 12017G32KT 080V140 10SM SCT041 BKN047 OVC070 10/05 A2948 RMK AO1 P0002
Loading
Personal Weather Stations






























Interactive Weather Map New forecast layout! Learn more

10-Day Weather Forecast

Advertisements
Track Severe Weather on mobile